Time;durP1;ratioP1;P1;durP2;ratioP2;P2;SDS_P1;SDS_P2;PMS_P1;PMS_P2;Temp;Humidity;BMP_temperature;BMP_pressure;BME280_temperature;BME280_humidity;BME280_pressure;Samples;Min_cycle;Max_cycle;Signal;HPM_P1;HPM_P2
2021/11/23 00:01:11;;;;;;;0.40;0.40;;;;;;;;;;5062953;28;20032;-89
2021/11/23 00:03:37;;;;;;;0.40;0.40;;;;;;;;;;5059816;28;20025;-89
2021/11/23 00:06:03;;;;;;;0.40;0.40;;;;;;;;;;5062596;28;20044;-87
2021/11/23 00:08:29;;;;;;;0.35;0.35;;;;;;;;;;5058886;28;20047;-87
2021/11/23 00:10:55;;;;;;;0.30;0.30;;;;;;;;;;5055718;28;20047;-87
2021/11/23 00:13:21;;;;;;;0.40;0.40;;;;;;;;;;5055405;28;20021;-88
2021/11/23 00:15:47;;;;;;;0.40;0.40;;;;;;;;;;5056189;28;20032;-88
2021/11/23 00:18:16;;;;;;;0.40;0.40;;;;;;;;;;5055962;28;20504;-89
2021/11/23 00:20:43;;;;;;;0.40;0.40;;;;;;;;;;5062357;28;20040;-88
2021/11/23 00:23:09;;;;;;;0.40;0.40;;;;;;;;;;5048538;28;20611;-87
2021/11/23 00:25:36;;;;;;;0.40;0.40;;;;;;;;;;5060933;28;20048;-86
2021/11/23 00:28:02;;;;;;;0.40;0.40;;;;;;;;;;5061046;28;20029;-86
2021/11/23 00:30:30;;;;;;;0.50;0.50;;;;;;;;;;5067684;28;20391;-86
2021/11/23 00:32:56;;;;;;;0.40;0.40;;;;;;;;;;5065296;28;20286;-86
2021/11/23 00:35:23;;;;;;;0.40;0.40;;;;;;;;;;5063093;28;20040;-87
2021/11/23 00:37:50;;;;;;;0.35;0.35;;;;;;;;;;5057840;28;20029;-86
2021/11/23 00:40:17;;;;;;;0.40;0.40;;;;;;;;;;5062422;28;20040;-86
2021/11/23 00:42:43;;;;;;;0.40;0.40;;;;;;;;;;5060837;28;20045;-86
2021/11/23 00:45:10;;;;;;;0.35;0.35;;;;;;;;;;5060473;28;20037;-87
2021/11/23 00:47:36;;;;;;;0.30;0.30;;;;;;;;;;5067192;28;20047;-87
2021/11/23 00:50:03;;;;;;;0.30;0.30;;;;;;;;;;5062361;28;20060;-86
2021/11/23 00:52:29;;;;;;;0.30;0.30;;;;;;;;;;5077976;28;20516;-86
2021/11/23 00:54:55;;;;;;;0.30;0.30;;;;;;;;;;5070612;28;20519;-86
2021/11/23 00:57:21;;;;;;;0.40;0.40;;;;;;;;;;5069103;28;20060;-87
2021/11/23 00:59:47;;;;;;;0.50;0.50;;;;;;;;;;5060427;28;20075;-86
2021/11/23 01:02:13;;;;;;;0.40;0.40;;;;;;;;;;5058777;28;20421;-85
2021/11/23 01:04:39;;;;;;;0.40;0.40;;;;;;;;;;5055947;28;20036;-87
2021/11/23 01:07:05;;;;;;;0.30;0.30;;;;;;;;;;5054558;28;20043;-87
2021/11/23 01:09:31;;;;;;;0.30;0.30;;;;;;;;;;5057337;28;20033;-86
2021/11/23 01:11:58;;;;;;;0.50;0.50;;;;;;;;;;5054138;28;20029;-86
2021/11/23 01:14:24;;;;;;;0.30;0.30;;;;;;;;;;5053633;28;20032;-87
2021/11/23 01:16:50;;;;;;;0.30;0.30;;;;;;;;;;5052329;28;20060;-85
2021/11/23 01:19:17;;;;;;;0.30;0.30;;;;;;;;;;5054162;28;20651;-86
2021/11/23 01:21:43;;;;;;;0.30;0.30;;;;;;;;;;5053341;28;20029;-87
2021/11/23 01:24:10;;;;;;;0.40;0.40;;;;;;;;;;5054136;28;20497;-86
2021/11/23 01:26:36;;;;;;;0.30;0.30;;;;;;;;;;5052919;28;20047;-87
2021/11/23 01:29:02;;;;;;;0.40;0.40;;;;;;;;;;5055321;28;20133;-87
2021/11/23 01:31:28;;;;;;;0.38;0.38;;;;;;;;;;5054582;28;20039;-88
2021/11/23 01:33:54;;;;;;;0.40;0.40;;;;;;;;;;5063961;28;20028;-87
2021/11/23 01:36:20;;;;;;;0.40;0.40;;;;;;;;;;5063232;28;20421;-88
2021/11/23 01:38:46;;;;;;;0.30;0.30;;;;;;;;;;5058014;28;20784;-86
2021/11/23 01:41:12;;;;;;;0.30;0.30;;;;;;;;;;5060088;28;20035;-87
2021/11/23 01:43:38;;;;;;;0.40;0.40;;;;;;;;;;5057383;28;21028;-86
2021/11/23 01:46:05;;;;;;;0.30;0.30;;;;;;;;;;5055981;28;20055;-86
2021/11/23 01:48:31;;;;;;;0.30;0.30;;;;;;;;;;5061293;28;21079;-88
2021/11/23 01:50:58;;;;;;;0.30;0.30;;;;;;;;;;5059076;28;20048;-86
2021/11/23 01:53:24;;;;;;;0.30;0.30;;;;;;;;;;5058718;28;20029;-87
2021/11/23 01:55:50;;;;;;;0.30;0.30;;;;;;;;;;5055263;28;20038;-87
2021/11/23 01:58:17;;;;;;;0.30;0.30;;;;;;;;;;5061321;28;20543;-87
2021/11/23 02:00:45;;;;;;;0.40;0.40;;;;;;;;;;5059275;28;20528;-87
2021/11/23 02:03:11;;;;;;;0.50;0.50;;;;;;;;;;5057843;28;20028;-87
2021/11/23 02:05:37;;;;;;;0.50;0.50;;;;;;;;;;5055145;28;20044;-87
2021/11/23 02:08:04;;;;;;;0.37;0.37;;;;;;;;;;5056292;28;20283;-86
2021/11/23 02:10:30;;;;;;;0.40;0.40;;;;;;;;;;5058646;28;20293;-89
2021/11/23 02:12:56;;;;;;;0.40;0.40;;;;;;;;;;5069487;28;20055;-88
2021/11/23 02:15:23;;;;;;;0.40;0.40;;;;;;;;;;5064782;28;20068;-89
2021/11/23 02:17:50;;;;;;;0.38;0.38;;;;;;;;;;5066959;28;20522;-88
2021/11/23 02:20:18;;;;;;;0.30;0.30;;;;;;;;;;5068844;28;20035;-88
2021/11/23 02:22:45;;;;;;;0.30;0.30;;;;;;;;;;5069238;28;20112;-88
2021/11/23 02:25:11;;;;;;;0.40;0.40;;;;;;;;;;5065472;28;20044;-88
2021/11/23 02:27:37;;;;;;;0.40;0.40;;;;;;;;;;5059411;28;20052;-88
2021/11/23 02:30:04;;;;;;;0.40;0.40;;;;;;;;;;5063623;28;20024;-89
2021/11/23 02:32:37;;;;;;;0.40;0.40;;;;;;;;;;5063976;28;20085;-87
2021/11/23 02:35:03;;;;;;;0.40;0.40;;;;;;;;;;5058589;28;20036;-87
2021/11/23 02:37:29;;;;;;;0.37;0.37;;;;;;;;;;5057995;28;20035;-88
2021/11/23 02:39:55;;;;;;;0.40;0.40;;;;;;;;;;5059234;28;20301;-88
2021/11/23 02:42:21;;;;;;;0.30;0.30;;;;;;;;;;5072359;28;20145;-88
2021/11/23 02:44:47;;;;;;;0.40;0.40;;;;;;;;;;5058025;28;20517;-88
2021/11/23 02:47:13;;;;;;;0.40;0.40;;;;;;;;;;5055430;28;20040;-87
2021/11/23 02:49:39;;;;;;;0.40;0.40;;;;;;;;;;5057405;28;20425;-87
2021/11/23 02:52:09;;;;;;;0.55;0.55;;;;;;;;;;5059529;28;20592;-88
2021/11/23 02:54:36;;;;;;;0.40;0.40;;;;;;;;;;5056144;28;20028;-87
2021/11/23 02:57:03;;;;;;;0.38;0.38;;;;;;;;;;5062591;28;20032;-87
2021/11/23 02:59:29;;;;;;;0.30;0.30;;;;;;;;;;5056205;28;20056;-87
2021/11/23 03:01:55;;;;;;;0.40;0.40;;;;;;;;;;5055541;28;20044;-87
2021/11/23 03:04:21;;;;;;;0.30;0.30;;;;;;;;;;5056947;28;20032;-87
2021/11/23 03:06:48;;;;;;;0.30;0.30;;;;;;;;;;5055886;28;20114;-87
2021/11/23 03:09:14;;;;;;;0.40;0.40;;;;;;;;;;5057483;28;20147;-86
2021/11/23 03:11:40;;;;;;;0.40;0.40;;;;;;;;;;5056890;28;20882;-87
2021/11/23 03:14:06;;;;;;;0.40;0.40;;;;;;;;;;5057203;28;20027;-87
2021/11/23 03:16:32;;;;;;;0.40;0.40;;;;;;;;;;5058274;28;20110;-87
2021/11/23 03:18:58;;;;;;;0.40;0.40;;;;;;;;;;5056496;28;20024;-86
2021/11/23 03:21:24;;;;;;;0.40;0.40;;;;;;;;;;5055167;28;20449;-86
2021/11/23 03:23:50;;;;;;;0.50;0.50;;;;;;;;;;5056440;28;20039;-87
2021/11/23 03:26:16;;;;;;;0.50;0.50;;;;;;;;;;5054294;28;20032;-87
2021/11/23 03:28:42;;;;;;;0.40;0.40;;;;;;;;;;5056471;28;20516;-87
2021/11/23 03:31:08;;;;;;;0.40;0.40;;;;;;;;;;5055726;28;20029;-87
2021/11/23 03:33:34;;;;;;;0.40;0.40;;;;;;;;;;5057813;28;20028;-87
2021/11/23 03:36:01;;;;;;;0.40;0.40;;;;;;;;;;5055746;28;20033;-87
2021/11/23 03:38:28;;;;;;;0.50;0.50;;;;;;;;;;5049686;28;20041;-85
2021/11/23 03:40:54;;;;;;;0.40;0.40;;;;;;;;;;5056386;28;20037;-87
2021/11/23 03:43:21;;;;;;;0.40;0.40;;;;;;;;;;5055919;28;20068;-87
2021/11/23 03:45:47;;;;;;;0.40;0.40;;;;;;;;;;5055068;28;20517;-86
2021/11/23 03:48:13;;;;;;;0.30;0.30;;;;;;;;;;5054910;28;20109;-86
2021/11/23 03:50:39;;;;;;;0.40;0.40;;;;;;;;;;5055248;28;20082;-85
2021/11/23 03:53:05;;;;;;;0.40;0.40;;;;;;;;;;5054767;28;20047;-87
2021/11/23 03:55:34;;;;;;;0.30;0.30;;;;;;;;;;5055700;28;20052;-88
2021/11/23 03:58:01;;;;;;;0.40;0.40;;;;;;;;;;5061420;28;20045;-88
2021/11/23 04:00:27;;;;;;;0.30;0.30;;;;;;;;;;5055308;28;20284;-88
2021/11/23 04:02:54;;;;;;;0.40;0.40;;;;;;;;;;5065239;28;20430;-88
2021/11/23 04:05:21;;;;;;;0.30;0.30;;;;;;;;;;5067096;28;20294;-87
2021/11/23 04:07:47;;;;;;;0.40;0.40;;;;;;;;;;5055159;28;20048;-86
2021/11/23 04:10:14;;;;;;;0.40;0.40;;;;;;;;;;5062348;28;20059;-87
2021/11/23 04:12:41;;;;;;;0.35;0.35;;;;;;;;;;5062808;28;20501;-87
2021/11/23 04:15:08;;;;;;;0.40;0.40;;;;;;;;;;5053653;28;20066;-87
2021/11/23 04:17:34;;;;;;;0.30;0.30;;;;;;;;;;5054945;28;20041;-87
2021/11/23 04:20:00;;;;;;;0.35;0.35;;;;;;;;;;5054505;28;20035;-87
2021/11/23 04:22:26;;;;;;;0.30;0.30;;;;;;;;;;5052935;28;20185;-87
2021/11/23 04:24:52;;;;;;;0.23;0.23;;;;;;;;;;5059190;28;20107;-86
2021/11/23 04:27:18;;;;;;;0.30;0.30;;;;;;;;;;5055317;28;20039;-88
2021/11/23 04:29:45;;;;;;;0.30;0.30;;;;;;;;;;5054250;28;20536;-88
2021/11/23 04:32:11;;;;;;;0.22;0.22;;;;;;;;;;5056791;28;20044;-87
2021/11/23 04:34:37;;;;;;;0.40;0.40;;;;;;;;;;5054291;28;20055;-87
2021/11/23 04:37:03;;;;;;;0.30;0.30;;;;;;;;;;5055513;28;20047;-86
2021/11/23 04:39:29;;;;;;;0.30;0.30;;;;;;;;;;5057577;28;20107;-87
2021/11/23 04:41:55;;;;;;;0.30;0.30;;;;;;;;;;5060032;28;20535;-87
2021/11/23 04:44:21;;;;;;;0.50;0.50;;;;;;;;;;5053620;28;20643;-88
2021/11/23 04:46:47;;;;;;;0.47;0.47;;;;;;;;;;5054445;28;20513;-86
2021/11/23 04:49:13;;;;;;;0.40;0.40;;;;;;;;;;5054702;28;20056;-87
2021/11/23 04:51:39;;;;;;;0.40;0.40;;;;;;;;;;5056747;28;20480;-87
2021/11/23 04:54:06;;;;;;;0.35;0.35;;;;;;;;;;5055744;28;20413;-87
2021/11/23 04:56:32;;;;;;;0.50;0.50;;;;;;;;;;5061266;28;20028;-88
2021/11/23 04:58:58;;;;;;;0.30;0.30;;;;;;;;;;5053611;28;20511;-88
2021/11/23 05:01:25;;;;;;;0.40;0.40;;;;;;;;;;5054784;28;20033;-87
2021/11/23 05:03:53;;;;;;;0.30;0.30;;;;;;;;;;5057375;28;20089;-88
2021/11/23 05:06:19;;;;;;;0.45;0.45;;;;;;;;;;5057246;28;20564;-88
2021/11/23 05:08:45;;;;;;;0.30;0.30;;;;;;;;;;5054357;28;20497;-88
2021/11/23 05:11:11;;;;;;;0.40;0.40;;;;;;;;;;5061306;28;20033;-88
2021/11/23 05:13:37;;;;;;;0.30;0.30;;;;;;;;;;5068248;28;20029;-89
2021/11/23 05:16:04;;;;;;;0.30;0.30;;;;;;;;;;5073384;28;20024;-87
2021/11/23 05:18:30;;;;;;;0.30;0.30;;;;;;;;;;5057173;28;20552;-88
2021/11/23 05:20:56;;;;;;;0.30;0.30;;;;;;;;;;5065257;28;20128;-89
2021/11/23 05:23:22;;;;;;;0.30;0.30;;;;;;;;;;5062519;28;20029;-89
2021/11/23 05:25:49;;;;;;;0.40;0.40;;;;;;;;;;5053678;28;20036;-89
2021/11/23 05:28:15;;;;;;;0.40;0.40;;;;;;;;;;5074637;28;20025;-87
2021/11/23 05:30:41;;;;;;;0.30;0.30;;;;;;;;;;5058555;28;20054;-87
2021/11/23 05:33:07;;;;;;;0.40;0.40;;;;;;;;;;5063108;28;20461;-88
2021/11/23 05:35:33;;;;;;;0.30;0.30;;;;;;;;;;5057402;28;20548;-86
2021/11/23 05:37:59;;;;;;;0.33;0.33;;;;;;;;;;5054974;28;20560;-87
2021/11/23 05:40:25;;;;;;;0.60;0.60;;;;;;;;;;5061619;28;20267;-88
2021/11/23 05:42:51;;;;;;;0.30;0.30;;;;;;;;;;5061730;28;20098;-87
2021/11/23 05:45:17;;;;;;;0.40;0.40;;;;;;;;;;5066328;28;20033;-90
2021/11/23 05:47:43;;;;;;;0.50;0.50;;;;;;;;;;5060668;28;20040;-89
2021/11/23 05:50:10;;;;;;;0.70;0.70;;;;;;;;;;5060226;28;20035;-91
2021/11/23 05:52:36;;;;;;;0.77;0.77;;;;;;;;;;5061238;28;20060;-91
2021/11/23 05:55:02;;;;;;;0.80;0.80;;;;;;;;;;5057400;28;20029;-87
2021/11/23 05:57:28;;;;;;;0.70;0.70;;;;;;;;;;5061117;28;20063;-87
2021/11/23 05:59:54;;;;;;;0.70;0.70;;;;;;;;;;5057914;28;20025;-85
2021/11/23 06:02:21;;;;;;;0.80;0.80;;;;;;;;;;5056817;28;20493;-86
2021/11/23 06:04:47;;;;;;;0.70;0.70;;;;;;;;;;5062352;28;20075;-86
2021/11/23 06:07:13;;;;;;;0.60;0.60;;;;;;;;;;5062372;28;20043;-87
2021/11/23 06:09:39;;;;;;;0.60;0.60;;;;;;;;;;5060860;28;20028;-87
2021/11/23 06:12:05;;;;;;;0.50;0.50;;;;;;;;;;5059409;28;20030;-86
2021/11/23 06:14:31;;;;;;;0.70;0.70;;;;;;;;;;5061074;28;20040;-86
2021/11/23 06:16:57;;;;;;;0.60;0.60;;;;;;;;;;5059534;28;20037;-87
2021/11/23 06:19:23;;;;;;;0.70;0.70;;;;;;;;;;5057305;28;20028;-87
2021/11/23 06:21:50;;;;;;;0.60;0.60;;;;;;;;;;5066293;28;20052;-89
2021/11/23 06:24:16;;;;;;;0.60;0.60;;;;;;;;;;5058830;28;20043;-87
2021/11/23 06:26:42;;;;;;;0.60;0.60;;;;;;;;;;5060916;28;20051;-88
2021/11/23 06:29:08;;;;;;;0.70;0.70;;;;;;;;;;5059154;28;20115;-87
2021/11/23 06:31:34;;;;;;;0.60;0.60;;;;;;;;;;5058134;28;20131;-87
2021/11/23 06:34:07;;;;;;;0.60;0.60;;;;;;;;;;5061438;28;20099;-89
2021/11/23 06:36:33;;;;;;;0.50;0.50;;;;;;;;;;5060457;28;20067;-87
2021/11/23 06:38:59;;;;;;;0.60;0.60;;;;;;;;;;5056949;28;20029;-88
2021/11/23 06:41:25;;;;;;;0.60;0.60;;;;;;;;;;5057006;28;20032;-87
2021/11/23 06:43:51;;;;;;;0.50;0.50;;;;;;;;;;5061526;28;20045;-88
2021/11/23 06:46:17;;;;;;;0.52;0.52;;;;;;;;;;5061267;28;20527;-86
2021/11/23 06:48:43;;;;;;;0.60;0.60;;;;;;;;;;5066680;28;20033;-86
2021/11/23 06:51:09;;;;;;;0.70;0.70;;;;;;;;;;5065997;28;20028;-85
2021/11/23 06:53:35;;;;;;;0.40;0.40;;;;;;;;;;5067923;28;20449;-85
2021/11/23 06:56:01;;;;;;;0.30;0.30;;;;;;;;;;5064344;28;20032;-85
2021/11/23 06:58:27;;;;;;;0.32;0.32;;;;;;;;;;5067013;28;20124;-83
2021/11/23 07:00:53;;;;;;;0.50;0.50;;;;;;;;;;5067173;28;20024;-83
2021/11/23 07:03:19;;;;;;;0.60;0.60;;;;;;;;;;5067783;28;20658;-84
2021/11/23 07:05:45;;;;;;;0.50;0.50;;;;;;;;;;5066731;28;20115;-86
2021/11/23 07:08:12;;;;;;;0.45;0.45;;;;;;;;;;5066281;28;20082;-86
2021/11/23 07:10:38;;;;;;;0.50;0.50;;;;;;;;;;5064496;28;20098;-85
2021/11/23 07:13:05;;;;;;;0.60;0.60;;;;;;;;;;5068195;28;20090;-85
2021/11/23 07:15:31;;;;;;;1.00;1.00;;;;;;;;;;5067354;28;20029;-85
2021/11/23 07:17:57;;;;;;;0.80;0.80;;;;;;;;;;5067424;28;20488;-84
2021/11/23 07:20:23;;;;;;;0.60;0.60;;;;;;;;;;5067493;28;20024;-85
2021/11/23 07:22:49;;;;;;;0.50;0.50;;;;;;;;;;5058932;28;20084;-86
2021/11/23 07:25:15;;;;;;;0.63;0.63;;;;;;;;;;5068559;28;20553;-85
2021/11/23 07:27:43;;;;;;;0.50;0.50;;;;;;;;;;5067889;28;20689;-85
2021/11/23 07:30:09;;;;;;;0.63;0.63;;;;;;;;;;5072725;28;20066;-86
2021/11/23 07:32:35;;;;;;;0.50;0.50;;;;;;;;;;5076552;28;20032;-86
2021/11/23 07:35:03;;;;;;;0.60;0.60;;;;;;;;;;5061372;28;20379;-88
2021/11/23 07:37:29;;;;;;;0.60;0.60;;;;;;;;;;5069241;28;20453;-88
2021/11/23 07:39:55;;;;;;;0.60;0.60;;;;;;;;;;5068257;28;20425;-85
2021/11/23 07:42:22;;;;;;;0.60;0.60;;;;;;;;;;5067133;28;20419;-87
2021/11/23 07:44:48;;;;;;;0.70;0.70;;;;;;;;;;5067865;28;20037;-84
2021/11/23 07:47:14;;;;;;;0.60;0.60;;;;;;;;;;5067613;28;20074;-89
2021/11/23 07:49:40;;;;;;;0.70;0.70;;;;;;;;;;5065826;28;20346;-89
2021/11/23 07:52:06;;;;;;;0.60;0.60;;;;;;;;;;5079486;28;20051;-89
2021/11/23 07:54:33;;;;;;;0.80;0.80;;;;;;;;;;5069313;28;20123;-89
2021/11/23 07:56:59;;;;;;;0.82;0.82;;;;;;;;;;5073331;28;20051;-89
2021/11/23 07:59:25;;;;;;;0.55;0.55;;;;;;;;;;5070457;28;20064;-89
2021/11/23 08:01:52;;;;;;;0.60;0.60;;;;;;;;;;5078702;28;20021;-89
2021/11/23 08:04:18;;;;;;;0.60;0.60;;;;;;;;;;5078254;28;20382;-88
2021/11/23 08:06:44;;;;;;;1.13;1.13;;;;;;;;;;5068785;28;20049;-89
2021/11/23 08:09:10;;;;;;;0.90;0.90;;;;;;;;;;5068190;28;20448;-89
2021/11/23 08:11:36;;;;;;;0.88;0.88;;;;;;;;;;5067397;28;20032;-87
2021/11/23 08:14:02;;;;;;;0.60;0.60;;;;;;;;;;5075506;28;20021;-89
2021/11/23 08:16:28;;;;;;;0.70;0.70;;;;;;;;;;5078377;28;20472;-89
2021/11/23 08:18:54;;;;;;;0.63;0.63;;;;;;;;;;5070676;28;20816;-88
2021/11/23 08:21:20;;;;;;;0.60;0.60;;;;;;;;;;5076242;28;20065;-89
2021/11/23 08:23:46;;;;;;;0.60;0.60;;;;;;;;;;5077465;28;20024;-89
2021/11/23 08:26:13;;;;;;;0.50;0.50;;;;;;;;;;5078507;28;20044;-88
2021/11/23 08:28:39;;;;;;;0.60;0.60;;;;;;;;;;5065736;28;20020;-88
2021/11/23 08:31:05;;;;;;;0.70;0.70;;;;;;;;;;5068824;28;20079;-88
2021/11/23 08:33:32;;;;;;;0.50;0.50;;;;;;;;;;5068021;28;20032;-89
2021/11/23 08:35:58;;;;;;;0.70;0.70;;;;;;;;;;5073201;28;20035;-88
2021/11/23 08:38:24;;;;;;;0.70;0.70;;;;;;;;;;5080010;28;20024;-88
2021/11/23 08:40:50;;;;;;;0.70;0.70;;;;;;;;;;5055797;28;20033;-89
2021/11/23 08:43:16;;;;;;;0.70;0.70;;;;;;;;;;5069314;28;20298;-89
2021/11/23 08:45:45;;;;;;;0.90;0.90;;;;;;;;;;5080884;28;20045;-90
2021/11/23 08:48:12;;;;;;;0.60;0.60;;;;;;;;;;5071109;28;20281;-89
2021/11/23 08:50:38;;;;;;;0.60;0.60;;;;;;;;;;5065424;28;20024;-89
2021/11/23 08:53:08;;;;;;;0.50;0.50;;;;;;;;;;5060511;28;20055;-88
2021/11/23 08:55:34;;;;;;;0.60;0.60;;;;;;;;;;5064596;28;20033;-89
2021/11/23 08:58:00;;;;;;;0.50;0.50;;;;;;;;;;5066772;28;20152;-90
2021/11/23 09:00:26;;;;;;;0.40;0.40;;;;;;;;;;5072799;28;20119;-88
2021/11/23 09:02:55;;;;;;;1.15;1.15;;;;;;;;;;5075812;28;20697;-88
2021/11/23 09:05:23;;;;;;;0.60;0.60;;;;;;;;;;5066983;28;20330;-90
2021/11/23 09:07:49;;;;;;;0.70;0.70;;;;;;;;;;5061029;28;20029;-89
2021/11/23 09:10:20;;;;;;;0.63;0.63;;;;;;;;;;5064570;28;20036;-88
2021/11/23 09:12:47;;;;;;;0.60;0.60;;;;;;;;;;5077647;28;20038;-88
2021/11/23 09:15:13;;;;;;;0.50;0.50;;;;;;;;;;5076138;28;20548;-89
2021/11/23 09:17:41;;;;;;;1.25;1.25;;;;;;;;;;5076780;28;20039;-89
2021/11/23 09:20:07;;;;;;;0.60;0.60;;;;;;;;;;5062987;28;20021;-88
2021/11/23 09:22:33;;;;;;;0.70;0.70;;;;;;;;;;5066816;28;20040;-89
2021/11/23 09:24:59;;;;;;;0.60;0.60;;;;;;;;;;5071419;28;20093;-89
2021/11/23 09:27:25;;;;;;;0.60;0.60;;;;;;;;;;5067351;28;20040;-88
2021/11/23 09:29:51;;;;;;;0.70;0.70;;;;;;;;;;5076692;28;20027;-87
2021/11/23 09:32:17;;;;;;;0.70;0.70;;;;;;;;;;5066282;28;20082;-89
2021/11/23 09:34:44;;;;;;;0.70;0.70;;;;;;;;;;5063923;28;20087;-89
2021/11/23 09:37:10;;;;;;;0.60;0.60;;;;;;;;;;5079549;28;20035;-88
2021/11/23 09:39:36;;;;;;;0.60;0.60;;;;;;;;;;5072978;28;20037;-89
2021/11/23 09:42:02;;;;;;;0.60;0.60;;;;;;;;;;5071832;28;20032;-88
2021/11/23 09:44:28;;;;;;;0.60;0.60;;;;;;;;;;5074735;28;20509;-89
2021/11/23 09:46:55;;;;;;;1.35;1.35;;;;;;;;;;5076845;28;20119;-88
2021/11/23 09:49:21;;;;;;;0.70;0.70;;;;;;;;;;5067444;28;20515;-88
2021/11/23 09:51:47;;;;;;;0.60;0.60;;;;;;;;;;5067458;28;20140;-89
2021/11/23 09:54:13;;;;;;;0.60;0.60;;;;;;;;;;5066623;28;20849;-89
2021/11/23 09:56:41;;;;;;;0.80;0.80;;;;;;;;;;5070461;28;20024;-90
2021/11/23 09:59:07;;;;;;;0.70;0.70;;;;;;;;;;5068323;28;20024;-90
2021/11/23 10:01:46;;;;;;;1.17;1.17;;;;;;;;;;5070442;28;20236;-88
2021/11/23 10:04:12;;;;;;;0.70;0.70;;;;;;;;;;5071993;28;20024;-89
2021/11/23 10:06:51;;;;;;;0.70;0.70;;;;;;;;;;5068623;28;20123;-88
2021/11/23 10:09:25;;;;;;;0.80;0.80;;;;;;;;;;5071222;28;20028;-89
2021/11/23 10:11:51;;;;;;;1.42;1.42;;;;;;;;;;5068467;28;20716;-89
2021/11/23 10:14:17;;;;;;;0.70;0.70;;;;;;;;;;5070033;28;20024;-89
2021/11/23 10:16:45;;;;;;;0.88;0.88;;;;;;;;;;5067009;28;20568;-89
2021/11/23 10:19:12;;;;;;;0.70;0.70;;;;;;;;;;5072457;28;20428;-89
2021/11/23 10:21:57;;;;;;;2.33;2.28;;;;;;;;;;5070263;28;20037;-88
2021/11/23 10:24:23;;;;;;;0.90;0.90;;;;;;;;;;5067910;28;20059;-88
2021/11/23 10:26:49;;;;;;;0.75;0.75;;;;;;;;;;5068315;28;20029;-89
2021/11/23 10:29:16;;;;;;;0.90;0.90;;;;;;;;;;5066764;28;20082;-88
2021/11/23 10:31:44;;;;;;;1.10;1.10;;;;;;;;;;5066060;28;20032;-88
2021/11/23 10:34:18;;;;;;;1.40;1.40;;;;;;;;;;5086809;28;20443;-89
2021/11/23 10:36:46;;;;;;;0.90;0.90;;;;;;;;;;5069694;28;20043;-88
2021/11/23 10:39:12;;;;;;;0.80;0.80;;;;;;;;;;5069979;28;20647;-89
2021/11/23 10:41:39;;;;;;;0.90;0.90;;;;;;;;;;5069226;28;20111;-89
2021/11/23 10:44:14;;;;;;;2.10;2.10;;;;;;;;;;5066566;28;20087;-88
2021/11/23 10:46:40;;;;;;;0.93;0.93;;;;;;;;;;5066354;28;20036;-89
2021/11/23 10:49:06;;;;;;;0.80;0.80;;;;;;;;;;5070385;28;20044;-88
2021/11/23 10:51:40;;;;;;;0.90;0.90;;;;;;;;;;5068215;28;20130;-88
2021/11/23 10:54:13;;;;;;;1.17;1.17;;;;;;;;;;5068873;28;20115;-88
2021/11/23 10:56:55;;;;;;;0.40;0.40;;;;;;;;;;5068983;28;20034;-89
2021/11/23 10:59:21;;;;;;;0.30;0.30;;;;;;;;;;5073839;28;20109;-89
2021/11/23 11:01:47;;;;;;;0.40;0.40;;;;;;;;;;5064688;28;20477;-89
2021/11/23 11:04:14;;;;;;;0.30;0.30;;;;;;;;;;5071841;28;20142;-89
2021/11/23 11:06:42;;;;;;;0.40;0.40;;;;;;;;;;5077755;28;20520;-89
2021/11/23 11:09:08;;;;;;;0.60;0.60;;;;;;;;;;5080790;28;20055;-89
2021/11/23 11:11:35;;;;;;;0.50;0.50;;;;;;;;;;5076087;28;20450;-87
2021/11/23 11:14:02;;;;;;;0.60;0.60;;;;;;;;;;5078472;28;20075;-89
2021/11/23 11:16:28;;;;;;;0.55;0.55;;;;;;;;;;5069160;28;20488;-88
2021/11/23 11:19:07;;;;;;;0.60;0.60;;;;;;;;;;5079967;28;20043;-88
2021/11/23 11:21:37;;;;;;;0.60;0.60;;;;;;;;;;5070682;28;20397;-89
2021/11/23 11:24:40;;;;;;;0.50;0.50;;;;;;;;;;5068494;28;20537;-88
2021/11/23 11:27:26;;;;;;;0.50;0.50;;;;;;;;;;5061061;28;20106;-88
2021/11/23 11:29:52;;;;;;;0.50;0.50;;;;;;;;;;5068163;28;20024;-88
2021/11/23 11:32:35;;;;;;;0.50;0.50;;;;;;;;;;5065912;28;20024;-88
2021/11/23 11:35:24;;;;;;;0.50;0.50;;;;;;;;;;5079906;28;20028;-88
2021/11/23 11:37:51;;;;;;;0.50;0.50;;;;;;;;;;5062406;28;20680;-88
2021/11/23 11:40:26;;;;;;;0.50;0.50;;;;;;;;;;5069542;28;20036;-88
2021/11/23 11:42:56;;;;;;;0.50;0.50;;;;;;;;;;5068092;28;20056;-88
2021/11/23 11:45:24;;;;;;;0.50;0.50;;;;;;;;;;5066927;28;20040;-88
2021/11/23 11:47:52;;;;;;;0.40;0.40;;;;;;;;;;5068057;28;20519;-89
2021/11/23 11:50:19;;;;;;;0.50;0.50;;;;;;;;;;5066253;28;20066;-88
2021/11/23 11:52:59;;;;;;;0.40;0.40;;;;;;;;;;5064129;28;20410;-88
2021/11/23 11:55:27;;;;;;;0.60;0.60;;;;;;;;;;5078044;28;20109;-88
2021/11/23 11:57:57;;;;;;;0.50;0.50;;;;;;;;;;5069183;28;20066;-87
2021/11/23 12:00:31;;;;;;;0.50;0.50;;;;;;;;;;5065522;28;20043;-90
2021/11/23 12:03:11;;;;;;;0.60;0.60;;;;;;;;;;5071058;28;20111;-90
2021/11/23 12:05:50;;;;;;;0.50;0.50;;;;;;;;;;5070213;28;20418;-89
2021/11/23 12:08:30;;;;;;;0.50;0.50;;;;;;;;;;5079351;28;20024;-87
2021/11/23 12:10:56;;;;;;;0.50;0.50;;;;;;;;;;5046294;28;20039;-88
2021/11/23 12:13:35;;;;;;;0.50;0.50;;;;;;;;;;5084167;28;20144;-88
2021/11/23 12:16:05;;;;;;;0.50;0.50;;;;;;;;;;5082731;28;20571;-89
2021/11/23 12:18:31;;;;;;;0.50;0.50;;;;;;;;;;5068817;28;20398;-88
2021/11/23 12:21:11;;;;;;;0.50;0.50;;;;;;;;;;5066728;28;20032;-88
2021/11/23 12:23:38;;;;;;;0.40;0.40;;;;;;;;;;5065862;28;20266;-88
2021/11/23 12:26:15;;;;;;;0.40;0.40;;;;;;;;;;5064556;28;20129;-88
2021/11/23 12:28:50;;;;;;;0.50;0.50;;;;;;;;;;5080226;28;20028;-88
2021/11/23 12:31:16;;;;;;;0.50;0.50;;;;;;;;;;5084279;28;20132;-90
2021/11/23 12:33:47;;;;;;;0.40;0.40;;;;;;;;;;5067813;28;20161;-88
2021/11/23 12:36:18;;;;;;;0.40;0.40;;;;;;;;;;5066939;28;20040;-89
2021/11/23 12:38:45;;;;;;;0.40;0.40;;;;;;;;;;5065219;28;20157;-89
2021/11/23 12:41:17;;;;;;;0.50;0.50;;;;;;;;;;5063221;28;20035;-88
2021/11/23 12:43:43;;;;;;;0.50;0.50;;;;;;;;;;5064515;28;20063;-89
2021/11/23 12:46:12;;;;;;;0.40;0.40;;;;;;;;;;5081259;28;20055;-88
2021/11/23 12:48:39;;;;;;;0.50;0.50;;;;;;;;;;5074388;28;20028;-88
2021/11/23 12:51:22;;;;;;;0.40;0.40;;;;;;;;;;5071028;28;20044;-89
2021/11/23 12:53:53;;;;;;;0.40;0.40;;;;;;;;;;5065902;28;20028;-87
2021/11/23 12:56:19;;;;;;;0.50;0.50;;;;;;;;;;5065861;28;20023;-88
2021/11/23 12:58:45;;;;;;;0.47;0.47;;;;;;;;;;5078238;28;20515;-88
2021/11/23 13:01:28;;;;;;;0.40;0.40;;;;;;;;;;5067695;28;20137;-89
2021/11/23 13:03:59;;;;;;;0.47;0.47;;;;;;;;;;5066944;28;20267;-88
2021/11/23 13:06:26;;;;;;;0.47;0.47;;;;;;;;;;5064846;28;20047;-88
2021/11/23 13:09:00;;;;;;;0.40;0.40;;;;;;;;;;5078850;28;20071;-89
2021/11/23 13:11:28;;;;;;;0.40;0.40;;;;;;;;;;5074925;28;20108;-88
2021/11/23 13:13:53;;;;;;;;;;;;;;;;;;5047099;28;20585;-88
2021/11/23 13:16:20;;;;;;;0.40;0.40;;;;;;;;;;5084696;28;20002;-89
2021/11/23 13:18:50;;;;;;;0.40;0.40;;;;;;;;;;5065229;28;20280;-88
2021/11/23 13:21:16;;;;;;;0.47;0.47;;;;;;;;;;5066906;28;20324;-90
2021/11/23 13:23:49;;;;;;;0.30;0.30;;;;;;;;;;5068725;28;20036;-89
2021/11/23 13:26:18;;;;;;;0.40;0.40;;;;;;;;;;5077006;28;20081;-89
2021/11/23 13:28:44;;;;;;;0.40;0.40;;;;;;;;;;5062782;28;20045;-88
2021/11/23 13:31:14;;;;;;;0.40;0.40;;;;;;;;;;5071168;28;20310;-89
2021/11/23 13:33:41;;;;;;;0.40;0.40;;;;;;;;;;5080621;28;20507;-89
2021/11/23 13:36:10;;;;;;;0.40;0.40;;;;;;;;;;5076245;28;20439;-89
2021/11/23 13:38:41;;;;;;;0.32;0.32;;;;;;;;;;5070348;28;20027;-89
2021/11/23 13:41:18;;;;;;;0.40;0.40;;;;;;;;;;5064843;28;20078;-89
2021/11/23 13:43:46;;;;;;;0.40;0.40;;;;;;;;;;5066822;28;20056;-90
2021/11/23 13:46:13;;;;;;;0.40;0.40;;;;;;;;;;5087688;28;20036;-89
2021/11/23 13:48:40;;;;;;;0.40;0.40;;;;;;;;;;5071271;28;20397;-88
2021/11/23 13:51:11;;;;;;;0.40;0.40;;;;;;;;;;5069119;28;20031;-88
2021/11/23 13:53:55;;;;;;;0.40;0.40;;;;;;;;;;5069938;28;20838;-89
2021/11/23 13:56:23;;;;;;;0.40;0.40;;;;;;;;;;5066495;28;20051;-88
2021/11/23 13:58:53;;;;;;;0.40;0.40;;;;;;;;;;5067123;28;20021;-87
2021/11/23 14:01:19;;;;;;;0.40;0.40;;;;;;;;;;5087690;28;20032;-89
2021/11/23 14:04:03;;;;;;;0.40;0.40;;;;;;;;;;5070164;28;20036;-88
2021/11/23 14:06:29;;;;;;;0.30;0.30;;;;;;;;;;5078525;28;20055;-87
2021/11/23 14:08:59;;;;;;;0.43;0.30;;;;;;;;;;5077080;28;20025;-89
2021/11/23 14:11:26;;;;;;;0.20;0.20;;;;;;;;;;5068586;28;20028;-89
2021/11/23 14:13:52;;;;;;;0.30;0.30;;;;;;;;;;5065004;28;20069;-88
2021/11/23 14:16:18;;;;;;;0.20;0.20;;;;;;;;;;5071520;28;20681;-88
2021/11/23 14:18:46;;;;;;;0.40;0.40;;;;;;;;;;5068259;28;20031;-88
2021/11/23 14:21:16;;;;;;;0.30;0.30;;;;;;;;;;5071405;28;20035;-88
2021/11/23 14:23:49;;;;;;;0.30;0.30;;;;;;;;;;5069107;28;20020;-89
2021/11/23 14:26:17;;;;;;;0.30;0.30;;;;;;;;;;5066083;28;20056;-88
2021/11/23 14:28:45;;;;;;;0.30;0.30;;;;;;;;;;5067100;28;20165;-88
2021/11/23 14:31:13;;;;;;;0.32;0.32;;;;;;;;;;5084712;28;20110;-88
2021/11/23 14:33:39;;;;;;;0.30;0.30;;;;;;;;;;5069922;28;20058;-89
2021/11/23 14:36:06;;;;;;;0.20;0.20;;;;;;;;;;5067859;28;20132;-89
2021/11/23 14:38:33;;;;;;;3.30;0.50;;;;;;;;;;5068958;28;20119;-88
2021/11/23 14:41:00;;;;;;;0.30;0.30;;;;;;;;;;5061449;28;20033;-90
2021/11/23 14:43:26;;;;;;;0.20;0.20;;;;;;;;;;5070728;28;20513;-88
2021/11/23 14:45:52;;;;;;;0.40;0.40;;;;;;;;;;5067816;28;20067;-89